Terminal Aerodrome Forecast
Issued by NWS Houston/Galveston TX

Home | Current Version | Previous Version | Text Only | Print | Product List | Glossary On
Versions: 1 2 3 4 5 6 7 8 9 10 11 12 13 14 15 16 17 18 19 20 21 22 23 24 25 26 27 28 29 30 31 32 33
000
FTUS44 KHGX 182325
TAFHOU
TAF
KHOU 182325Z 1900/1924 25005KT P6SM OVC008
     FM190300 28005KT 6SM BR OVC006
      TEMPO 1903/1906 2SM -RA BR OVC004
     FM190600 VRB03KT 3SM BR VCSH OVC007
     FM191000 30006KT 4SM SHRA BR VCTS OVC007CB PROB30 1912/1918 5SM
      TSRA BR BKN007CB
     FM191800 26005KT P6SM VCSH BKN007 BKN015
     FM192100 22005KT P6SM SCT025 SCT050=

USA.gov is the U.S. government's official web portal to all federal, state and local government web resources and services.